Latest Weather Observations for Sheffield

IDT60801

Issued at 11:01 pm EST Sunday 5 July 2015 (issued every 30 minutes, with the page automatically refreshed every 10 minutes)

About weather observations | Map of weather stations | Latest weather observations for TAS | Other Formats
Station Details ID: 091291 Name: SHEFFIELD SCHOOL FARM Lat: -41.39 Lon: 146.32 Height: 294.2 m
Data from the previous 72 hours. | See also: Recent months at Sheffield
Date/Time
EST
Temp
°C
App
Temp
°C
Dew
Point
Rel
Hum
%
Delta-T
°C
Wind Press
QNH
hPa
Press
MSL
hPa
Rain
since 9 am
mm
Dir
 
Spd
km/h
Gust
km/h
Spd
kts
Gust
kts
05/11:00pm 6.4 2.6 6.0 97 0.2 SE 15 19 8 10 1013.1 1013.7 8.0
05/10:30pm 6.7 3.4 6.4 98 0.1 SE 13 17 7 9 1013.2 1013.8 7.8
05/10:00pm 6.8 4.3 6.5 98 0.1 ESE 9 11 5 6 1013.3 1013.9 6.4
05/09:30pm 7.1 4.3 6.8 98 0.1 SE 11 13 6 7 1013.2 1013.8 5.6
05/09:00pm 7.3 5.5 7.0 98 0.1 ESE 6 7 3 4 1013.3 1013.9 5.2
05/08:30pm 7.4 6.3 7.1 98 0.1 SE 2 4 1 2 1013.2 1013.8 4.8
05/08:00pm 7.5 6.9 7.2 98 0.1 CALM 0 0 0 0 1013.2 1013.8 3.6
05/07:30pm 7.5 6.9 7.2 98 0.1 CALM 0 2 0 1 1013.1 1013.7 3.0
05/07:00pm 7.5 5.7 7.1 97 0.2 SE 6 6 3 3 1012.8 1013.4 3.0
05/06:30pm 7.6 5.8 7.2 97 0.2 SE 6 6 3 3 1012.6 1013.2 3.0
05/06:00pm 7.7 6.3 7.3 97 0.2 ESE 4 6 2 3 1012.7 1013.3 2.8
05/05:30pm 7.9 7.3 7.5 97 0.2 CALM 0 2 0 1 1012.6 1013.2 2.6
05/05:00pm 8.0 6.1 7.6 97 0.2 ESE 7 9 4 5 1012.4 1013.0 2.2
05/04:30pm 8.3 6.6 7.7 96 0.3 ESE 6 7 3 4 1012.4 1013.0 1.8
05/04:00pm 8.5 6.8 7.7 95 0.4 E 6 7 3 4 1012.3 1012.8 1.6
05/03:30pm 8.9 7.6 7.7 92 0.6 ESE 4 6 2 3 1012.3 1012.8 1.4
05/03:00pm 8.9 8.4 7.7 92 0.6 CALM 0 0 0 0 1012.2 1012.7 1.4
05/02:30pm 8.8 8.2 7.4 91 0.7 CALM 0 0 0 0 1012.1 1012.6 1.4
05/02:00pm 8.8 7.1 7.6 92 0.6 N 6 7 3 4 1012.3 1012.8 1.4
05/01:30pm 8.8 7.9 7.6 92 0.6 NNW 2 6 1 3 1012.3 1012.8 1.4
05/01:00pm 8.3 7.2 7.1 92 0.6 NW 2 4 1 2 1012.4 1013.0 1.4
05/12:30pm 8.0 7.3 6.9 93 0.5 CALM 0 0 0 0 1012.7 1013.3 1.2
05/12:00pm 7.5 6.7 6.4 93 0.5 CALM 0 0 0 0 1012.9 1013.5 1.0
05/11:30am 7.3 5.8 6.6 95 0.3 SSE 4 6 2 3 1013.2 1013.8 1.0
05/11:00am 6.6 4.5 5.9 95 0.3 ESE 6 7 3 4 1013.6 1014.2 1.0
05/10:30am 6.3 4.2 5.7 96 0.3 ESE 6 7 3 4 1013.7 1014.3 0.8
05/10:00am 6.0 3.3 5.4 96 0.3 SE 9 9 5 5 1013.5 1014.1 0.8
05/09:30am 5.7 3.8 5.1 96 0.3 SE 4 7 2 4 1013.7 1014.3 0.4
05/09:00am 5.5 4.0 4.8 95 0.3 SSE 2 2 1 1 1013.8 1014.4 2.0
05/08:30am 5.2 4.0 4.5 95 0.3 CALM 0 0 0 0 1013.8 1014.4 1.6
05/08:00am 5.1 3.4 4.2 94 0.4 WNW 2 2 1 1 1013.8 1014.4 1.4
05/07:30am 5.2 3.9 4.3 94 0.4 CALM 0 0 0 0 1013.8 1014.4 1.0
05/07:00am 5.2 3.9 4.2 93 0.4 CALM 0 0 0 0 1013.7 1014.3 0.8
05/06:30am 5.2 3.5 4.0 92 0.5 NW 2 4 1 2 1013.6 1014.2 0.4
05/06:00am 5.2 3.1 3.9 91 0.6 N 4 6 2 3 1013.6 1014.2 0.4
05/05:30am 5.0 2.3 3.8 92 0.5 NNW 7 9 4 5 1013.7 1014.3 0.4
05/05:00am 4.9 2.2 3.7 92 0.5 NNW 7 9 4 5 1013.6 1014.2 0.4
05/04:30am 5.0 2.3 3.7 91 0.6 NNW 7 9 4 5 1013.7 1014.3 0.4
05/04:00am 5.4 2.3 3.4 87 0.8 NNW 9 11 5 6 1013.9 1014.5 0.0
05/03:30am 5.7 2.5 3.0 83 1.1 NNW 9 11 5 6 1014.1 1014.7 0.0
05/03:00am 5.8 3.1 2.8 81 1.3 NNW 6 9 3 5 1014.3 1014.9 0.0
05/02:30am 6.0 2.4 2.8 80 1.3 NNW 11 15 6 8 1014.3 1014.9 0.0
05/02:00am 6.1 2.5 2.7 79 1.4 NW 11 17 6 9 1014.5 1015.1 0.0
05/01:30am 6.4 2.0 2.5 76 1.6 NW 15 20 8 11 1014.3 1014.9 0.0
05/01:00am 6.1 2.4 2.4 77 1.5 NW 11 13 6 7 1014.6 1015.2 0.0
05/12:30am 7.2 1.9 2.1 70 2.1 W 19 26 10 14 1014.7 1015.3 0.0
05/12:00am 7.5 2.1 2.4 70 2.2 WSW 20 30 11 16 1014.7 1015.3 0.0
 
Date/Time
EST
Temp
°C
App
Temp
°C
Dew
Point
Rel
Hum
%
Delta-T
°C
Wind Press
QNH
hPa
Press
MSL
hPa
Rain
since 9 am
mm
Dir
 
Spd
km/h
Gust
km/h
Spd
kts
Gust
kts
04/11:30pm 7.2 0.5 1.7 68 2.3 WSW 26 32 14 17 1014.6 1015.2 0.0
04/11:00pm 6.9 0.6 1.4 68 2.3 W 24 33 13 18 1014.4 1015.0 0.0
04/10:30pm 6.5 1.9 1.4 70 2.1 W 15 24 8 13 1014.6 1015.2 0.0
04/10:00pm 6.5 2.3 1.4 70 2.1 W 13 19 7 10 1014.6 1015.2 0.0
04/09:30pm 6.8 2.2 1.3 68 2.2 W 15 22 8 12 1014.8 1015.4 0.0
04/09:00pm 7.0 1.4 1.3 67 2.3 WNW 20 28 11 15 1014.6 1015.2 0.0
04/08:30pm 6.5 0.6 1.4 70 2.1 WNW 22 30 12 16 1014.5 1015.1 0.0
04/08:00pm 6.6 0.7 1.7 71 2.0 WNW 22 32 12 17 1014.6 1015.2 0.0
04/07:30pm 6.5 1.2 1.8 72 1.9 WNW 19 26 10 14 1014.6 1015.2 0.0
04/07:00pm 7.2 1.9 1.7 68 2.3 W 19 30 10 16 1014.5 1015.1 0.0
04/06:30pm 7.6 2.7 1.9 67 2.4 W 17 22 9 12 1014.3 1014.9 0.0
04/06:00pm 7.6 3.1 2.3 69 2.2 WNW 15 20 8 11 1014.2 1014.8 0.0
04/05:30pm 7.7 3.6 2.2 68 2.3 WNW 13 19 7 10 1013.9 1014.5 0.0
04/05:00pm 7.8 3.7 2.5 69 2.3 W 13 19 7 10 1013.7 1014.3 0.0
04/04:30pm 8.7 3.5 2.3 64 2.7 W 19 30 10 16 1013.7 1014.3 0.0
04/04:00pm 9.8 3.6 2.4 60 3.2 W 24 33 13 18 1013.8 1014.4 0.0
04/03:30pm 10.5 3.6 2.8 59 3.4 W 28 39 15 21 1013.6 1014.2 0.0
04/03:00pm 10.8 3.6 2.9 58 3.5 W 30 43 16 23 1013.1 1013.7 0.0
04/02:42pm 11.1 4.4 3.4 59 3.4 WSW 28 48 15 26 1013.0 1013.6 0.0
04/02:30pm 11.2 4.1 3.5 59 3.5 WSW 30 37 16 20 1013.1 1013.7 0.0
04/02:01pm 11.5 4.1 3.8 59 3.5 WSW 32 52 17 28 1012.8 1013.4 0.0
04/02:00pm 11.5 3.8 3.5 58 3.6 WSW 33 52 18 28 1012.8 1013.4 0.0
04/01:51pm 11.7 4.2 3.2 56 3.8 WSW 32 52 17 28 1012.8 1013.4 0.0
04/01:30pm 11.8 4.5 4.3 60 3.4 WSW 32 44 17 24 1012.7 1013.3 0.0
04/01:00pm 11.9 5.7 4.4 60 3.5 WSW 26 41 14 22 1012.8 1013.4 0.0
04/12:33pm 11.7 3.8 4.2 60 3.4 WSW 35 56 19 30 1012.7 1013.3 0.0
04/12:30pm 11.7 3.4 4.4 61 3.4 WSW 37 56 20 30 1012.7 1013.3 0.0
04/12:00pm 11.9 4.9 6.2 68 2.7 WSW 32 39 17 21 1013.0 1013.6 0.0
04/11:30am 12.0 7.6 7.5 74 2.2 W 20 35 11 19 1013.0 1013.6 0.0
04/11:00am 11.0 6.8 8.4 84 1.3 WNW 20 30 11 16 1013.3 1013.9 0.0
04/10:30am 11.7 7.6 8.0 78 1.8 WNW 19 26 10 14 1013.2 1013.8 0.0
04/10:00am 11.1 7.0 8.0 81 1.5 WNW 19 26 10 14 1013.0 1013.6 0.0
04/09:30am 10.5 6.6 7.2 80 1.6 WNW 17 24 9 13 1012.9 1013.5 0.0
04/09:00am 9.8 5.9 7.1 83 1.3 WNW 17 24 9 13 1012.9 1013.5 0.2
04/08:30am 9.3 4.9 6.7 84 1.2 WNW 19 26 10 14 1012.6 1013.2 0.2
04/08:00am 9.1 3.7 6.4 83 1.3 WNW 24 33 13 18 1012.3 1012.8 0.2
04/07:30am 9.2 4.6 6.3 82 1.4 WNW 20 30 11 16 1012.4 1013.0 0.2
04/07:00am 9.0 5.0 6.8 86 1.0 WNW 17 22 9 12 1012.6 1013.2 0.0
04/06:30am 7.6 4.7 6.4 92 0.6 NW 11 13 6 7 1012.4 1013.0 0.0
04/06:00am 8.2 4.3 7.0 92 0.6 NW 17 22 9 12 1012.4 1013.0 0.0
04/05:30am 8.1 3.5 6.7 91 0.7 NW 20 26 11 14 1012.2 1012.7 0.0
04/05:00am 7.8 3.2 6.6 92 0.6 NW 20 26 11 14 1012.3 1012.8 0.0
04/04:30am 7.5 2.5 6.4 93 0.5 NW 22 30 12 16 1012.5 1013.1 0.0
04/04:00am 7.2 2.7 6.1 93 0.5 NW 19 26 10 14 1012.7 1013.3 0.0
04/03:30am 7.2 2.1 5.8 91 0.6 NW 22 33 12 18 1013.1 1013.7 0.0
04/03:00am 6.7 2.0 5.3 91 0.6 NW 19 26 10 14 1013.4 1014.0 0.0
04/02:30am 6.4 2.4 5.0 91 0.6 NW 15 19 8 10 1014.0 1014.6 0.0
04/02:00am 6.0 2.3 4.6 91 0.6 NNW 13 17 7 9 1014.3 1014.9 0.0
04/01:30am 6.0 2.3 4.3 89 0.7 NNW 13 17 7 9 1014.7 1015.3 0.0
04/01:00am 5.9 1.8 4.1 88 0.8 NNW 15 19 8 10 1015.0 1015.6 0.0
04/12:30am 5.8 1.7 4.1 89 0.7 NNW 15 19 8 10 1015.6 1016.2 0.0
04/12:00am 5.4 1.2 3.7 89 0.7 NNW 15 19 8 10 1016.0 1016.6 0.0
 
Date/Time
EST
Temp
°C
App
Temp
°C
Dew
Point
Rel
Hum
%
Delta-T
°C
Wind Press
QNH
hPa
Press
MSL
hPa
Rain
since 9 am
mm
Dir
 
Spd
km/h
Gust
km/h
Spd
kts
Gust
kts
03/11:30pm 5.4 1.6 3.7 89 0.7 NW 13 20 7 11 1016.4 1017.0 0.0
03/11:00pm 5.5 1.7 3.8 89 0.7 NW 13 17 7 9 1016.9 1017.5 0.0
03/10:30pm 5.0 1.1 3.3 89 0.7 NW 13 17 7 9 1017.0 1017.6 0.0
03/10:00pm 5.4 1.1 3.3 86 0.9 NW 15 20 8 11 1017.4 1018.0 0.0
03/09:30pm 5.2 0.9 3.1 86 0.9 NW 15 20 8 11 1017.6 1018.2 0.0
03/09:00pm 5.1 0.7 2.8 85 1.0 NW 15 22 8 12 1017.7 1018.3 0.0
03/08:30pm 4.2 0.5 2.4 88 0.7 NNW 11 17 6 9 1017.9 1018.5 0.0
03/08:00pm 5.4 0.3 2.8 83 1.1 NW 19 28 10 15 1018.3 1019.0 0.0
03/07:30pm 5.5 0.3 2.5 81 1.2 NW 19 24 10 13 1018.3 1019.0 0.0
03/07:00pm 5.3 1.2 2.1 80 1.3 NW 13 22 7 12 1018.5 1019.2 0.0
03/06:30pm 4.8 1.4 1.8 81 1.2 NW 9 15 5 8 1018.6 1019.3 0.0
03/06:00pm 5.7 1.2 2.0 77 1.5 NW 15 20 8 11 1018.8 1019.5 0.0
03/05:30pm 5.8 1.2 1.7 75 1.7 WNW 15 20 8 11 1018.7 1019.4 0.0
03/05:00pm 6.2 1.3 2.1 75 1.7 WNW 17 26 9 14 1018.8 1019.5 0.0
03/04:30pm 7.1 2.6 2.4 72 2.0 WNW 15 22 8 12 1018.9 1019.6 0.0
03/04:00pm 8.4 3.6 2.6 67 2.5 WNW 17 28 9 15 1018.9 1019.6 0.0
03/03:30pm 8.9 3.6 2.9 66 2.6 WNW 20 26 11 14 1019.0 1019.7 0.0
03/03:00pm 9.3 4.6 3.3 66 2.6 WSW 17 22 9 12 1019.3 1019.9 0.0
03/02:30pm 7.9 2.7 2.2 67 2.4 WSW 19 24 10 13 1019.4 1020.0 0.0
03/02:00pm 8.4 3.2 2.4 66 2.5 W 19 26 10 14 1019.7 1020.3 0.0
03/01:30pm 8.8 3.4 2.2 63 2.8 W 20 28 11 15 1020.1 1020.7 0.0
03/01:00pm 8.7 3.3 2.5 65 2.6 W 20 28 11 15 1020.6 1021.2 0.0
03/12:30pm 8.5 2.4 2.5 66 2.6 WSW 24 33 13 18 1020.9 1021.6 0.0
03/12:00pm 8.1 2.6 2.1 66 2.5 W 20 30 11 16 1021.4 1022.1 0.0
03/11:30am - - - - - W 20 30 11 16 1021.9 1022.6 0.0
03/11:00am - - - - - WNW 17 24 9 13 1022.3 1023.0 0.0
03/10:30am - - - - - W 9 13 5 7 1022.7 1023.3 0.0
03/10:00am - - - - - NW 9 11 5 6 1022.9 1023.5 0.0
03/09:30am - - - - - N 9 11 5 6 1022.8 1023.4 0.0
03/09:00am - - - - - N 7 9 4 5 1023.0 1023.6 0.0
03/08:30am - - - - - SSE 2 7 1 4 1022.9 1023.5 0.0
03/08:00am - - - - - W 4 7 2 4 1023.0 1023.6 0.0
03/07:30am - - - - - W 4 6 2 3 1022.9 1023.5 0.0
03/07:00am - - - - - NNW 4 7 2 4 1022.8 1023.4 0.0
03/06:30am - - - - - NNW 7 9 4 5 1022.5 1023.2 0.0
03/06:00am - - - - - WSW 2 7 1 4 1022.5 1023.2 0.0
03/05:30am - - - - - N 6 7 3 4 1022.4 1023.1 0.0
03/05:00am - - - - - ENE 4 6 2 3 1022.1 1022.8 0.0
03/04:30am - - - - - ENE 6 7 3 4 1022.0 1022.7 0.0
03/04:00am - - - - - WSW 4 9 2 5 1022.1 1022.8 0.0
03/03:30am - - - - - E 2 11 1 6 1022.2 1022.9 0.0
03/03:00am - - - - - W 11 17 6 9 1022.4 1023.1 0.0
03/02:30am - - - - - WNW 4 6 2 3 1022.4 1023.1 0.0
03/02:00am - - - - - WNW 6 13 3 7 1022.8 1023.4 0.0
03/01:30am - - - - - W 15 22 8 12 1022.5 1023.2 0.0
03/01:00am - - - - - W 11 19 6 10 1022.4 1023.1 0.0
03/12:30am - - - - - SW 6 11 3 6 1022.8 1023.4 0.0
03/12:00am - - - - - SSE 7 19 4 10 1022.8 1023.4 0.0
 
Date/Time
EST
Temp
°C
App
Temp
°C
Dew
Point
Rel
Hum
%
Delta-T
°C
Wind Press
QNH
hPa
Press
MSL
hPa
Rain
since 9 am
mm
Dir
 
Spd
km/h
Gust
km/h
Spd
kts
Gust
kts
02/11:30pm - - - - - WSW 17 28 9 15 1022.8 1023.4 0.0

Other Formats:

Comma delimited format used in spreadsheet applications
http://www.bom.gov.au/fwo/IDT60801/IDT60801.94955.axf

JavaScript Object Notation format (JSON) in row-major order
http://www.bom.gov.au/fwo/IDT60801/IDT60801.94955.json